Strona główna
METAR-TAF:

METAR-TAF

Lotnisko :

Newport, Vermont, Stany Zjednoczone

Szerokość geograficzna: 44-53-20N, Długość geograficzna: 072-13-45W, wysokość: 283 m

Aktualna obserwacja pogody

Raport powstał 24 minut temu, godzina 18:35 UTC
Wiatr 4 kt od południowy zachód
Temperatura 2°C
Wilgotność 75%
Ciśnienie 1016 hPa
Widzialność: 11.3 km
bezchmurnie

METAR: KEFK 151835Z AUTO 22004KT 7SM CLR 02/M02 A2999 RMK AO2 T00161021

czas: 13:59 (18:59 UTC)


TAF: brakujący

Obserwacja i prognoza pogody dla ponad 4000 lotnisk (raport METAR i TAF).

Dostępne stacje oznaczono żółtymi i czerwonymi punktami na mapie.

Najedź kursorem aby zobaczyć nazwę stacji.

Kliknij aby zobaczyć obserwacje i prognozy pogody.

Aby zmienić mapę: kliknij na zielony przycisk z czarnym krzyżykiem, aby powiększyć; na zielony przycisk z myślnikiem, aby pomniejszyć; na zielone strzałki, aby przejść do map sąsiednich.


METAR-TAF: